createdAt,value
2023-09-23T00:00:03.407Z,88
2023-09-23T00:20:03.121Z,88
2023-09-23T00:40:02.769Z,89
2023-09-23T01:00:04.454Z,89
2023-09-23T01:20:03.214Z,88
2023-09-23T01:40:03.297Z,88
2023-09-23T02:00:04.386Z,89
2023-09-23T02:20:03.133Z,89
2023-09-23T02:40:02.757Z,89
2023-09-23T03:00:08.548Z,89
2023-09-23T03:20:03.265Z,88
2023-09-23T03:40:02.919Z,89
2023-09-23T04:00:03.247Z,88
2023-09-23T04:20:05.155Z,87
2023-09-23T04:40:02.866Z,86
2023-09-23T05:00:07.254Z,86
2023-09-23T05:20:03.569Z,85
2023-09-23T05:40:03.264Z,85
2023-09-23T06:00:04.245Z,84
2023-09-23T06:20:02.933Z,84
2023-09-23T06:40:02.762Z,84
2023-09-23T07:00:03.661Z,82
2023-09-23T07:20:03.491Z,79
2023-09-23T07:40:03.415Z,75
2023-09-23T08:00:03.549Z,71
2023-09-23T08:20:03.641Z,67
2023-09-23T08:40:03.685Z,66
2023-09-23T09:00:03.555Z,65
2023-09-23T09:20:02.556Z,64
2023-09-23T09:40:03.110Z,63
2023-09-23T10:00:04.662Z,63
2023-09-23T10:20:03.788Z,62
2023-09-23T10:40:04.159Z,61
2023-09-23T11:00:04.642Z,60
2023-09-23T11:20:03.978Z,56
2023-09-23T11:40:03.074Z,55
2023-09-23T12:00:03.369Z,53
2023-09-23T12:20:02.532Z,52
2023-09-23T12:40:04.644Z,54
2023-09-23T13:00:03.456Z,54
2023-09-23T13:20:04.515Z,54
2023-09-23T13:40:02.896Z,55
2023-09-23T14:00:03.541Z,54
2023-09-23T14:20:06.203Z,53
2023-09-23T14:40:02.748Z,53
2023-09-23T15:00:03.718Z,51
2023-09-23T15:20:02.737Z,52
2023-09-23T15:40:03.093Z,54
2023-09-23T16:00:02.671Z,55
2023-09-23T16:20:03.262Z,55
2023-09-23T16:40:02.895Z,56
2023-09-23T17:00:02.886Z,57
2023-09-23T17:20:03.030Z,60
2023-09-23T17:40:02.742Z,61
2023-09-23T18:00:03.461Z,63
2023-09-23T18:20:03.220Z,64
2023-09-23T18:40:02.774Z,65
2023-09-23T19:00:03.387Z,67
2023-09-23T19:20:03.540Z,67
2023-09-23T19:40:03.693Z,68
2023-09-23T20:00:03.479Z,69
2023-09-23T20:20:03.285Z,70
2023-09-23T20:40:03.048Z,71
2023-09-23T21:00:02.892Z,71
2023-09-23T21:20:02.810Z,71
2023-09-23T21:40:03.431Z,71
2023-09-23T22:00:03.669Z,72
2023-09-23T22:20:06.771Z,73
2023-09-23T22:40:06.260Z,73
2023-09-23T23:00:03.014Z,74
2023-09-23T23:20:05.868Z,73
2023-09-23T23:40:03.144Z,73
